sensor_id;sensor_type;location;lat;lon;timestamp;temperature;humidity
54788;DHT22;59598;48.112;16.280;2023-05-16T00:01:44;13.40;1.00
54788;DHT22;59598;48.112;16.280;2023-05-16T00:04:16;13.40;1.00
54788;DHT22;59598;48.112;16.280;2023-05-16T00:06:47;13.40;1.00
54788;DHT22;59598;48.112;16.280;2023-05-16T00:09:19;13.30;1.00
54788;DHT22;59598;48.112;16.280;2023-05-16T00:11:50;13.30;1.00
54788;DHT22;59598;48.112;16.280;2023-05-16T00:14:21;13.10;1.00
54788;DHT22;59598;48.112;16.280;2023-05-16T00:16:56;13.00;1.00
54788;DHT22;59598;48.112;16.280;2023-05-16T00:19:31;12.90;44.00
54788;DHT22;59598;48.112;16.280;2023-05-16T00:22:06;12.80;99.90
54788;DHT22;59598;48.112;16.280;2023-05-16T00:24:39;12.70;89.00
54788;DHT22;59598;48.112;16.280;2023-05-16T00:27:11;12.60;99.90
54788;DHT22;59598;48.112;16.280;2023-05-16T00:29:44;12.60;99.90
54788;DHT22;59598;48.112;16.280;2023-05-16T00:32:18;12.40;99.90
54788;DHT22;59598;48.112;16.280;2023-05-16T00:34:49;12.30;1.00
54788;DHT22;59598;48.112;16.280;2023-05-16T00:37:23;12.30;1.00
54788;DHT22;59598;48.112;16.280;2023-05-16T00:39:55;12.40;1.00
54788;DHT22;59598;48.112;16.280;2023-05-16T00:42:31;12.40;1.00
54788;DHT22;59598;48.112;16.280;2023-05-16T00:45:07;12.40;1.00
54788;DHT22;59598;48.112;16.280;2023-05-16T00:47:41;12.40;1.00
54788;DHT22;59598;48.112;16.280;2023-05-16T00:50:14;12.40;1.00
54788;DHT22;59598;48.112;16.280;2023-05-16T00:52:48;12.30;1.00
54788;DHT22;59598;48.112;16.280;2023-05-16T00:55:22;12.30;1.00
54788;DHT22;59598;48.112;16.280;2023-05-16T00:57:58;12.30;1.00
54788;DHT22;59598;48.112;16.280;2023-05-16T01:00:30;12.40;1.00
54788;DHT22;59598;48.112;16.280;2023-05-16T01:03:07;12.40;1.00
54788;DHT22;59598;48.112;16.280;2023-05-16T01:05:40;12.40;1.00
54788;DHT22;59598;48.112;16.280;2023-05-16T01:08:14;12.40;1.00
54788;DHT22;59598;48.112;16.280;2023-05-16T01:10:52;12.40;1.00
54788;DHT22;59598;48.112;16.280;2023-05-16T01:13:40;12.30;1.00
54788;DHT22;59598;48.112;16.280;2023-05-16T01:16:23;12.30;1.00
54788;DHT22;59598;48.112;16.280;2023-05-16T01:19:17;12.40;1.00
54788;DHT22;59598;48.112;16.280;2023-05-16T01:22:14;12.40;1.00
54788;DHT22;59598;48.112;16.280;2023-05-16T01:27:31;12.40;99.90
54788;DHT22;59598;48.112;16.280;2023-05-16T01:30:14;12.40;1.00
54788;DHT22;59598;48.112;16.280;2023-05-16T01:32:46;12.30;1.00
54788;DHT22;59598;48.112;16.280;2023-05-16T01:35:20;12.40;1.00
54788;DHT22;59598;48.112;16.280;2023-05-16T01:38:14;12.50;99.90
54788;DHT22;59598;48.112;16.280;2023-05-16T01:41:03;12.60;99.90
54788;DHT22;59598;48.112;16.280;2023-05-16T01:43:43;12.70;99.90
54788;DHT22;59598;48.112;16.280;2023-05-16T01:46:24;12.80;99.90
54788;DHT22;59598;48.112;16.280;2023-05-16T01:52:08;13.00;99.90
54788;DHT22;59598;48.112;16.280;2023-05-16T01:54:46;13.00;99.90
54788;DHT22;59598;48.112;16.280;2023-05-16T01:57:25;13.20;61.90
54788;DHT22;59598;48.112;16.280;2023-05-16T01:59:57;13.20;1.00
54788;DHT22;59598;48.112;16.280;2023-05-16T02:02:30;13.30;1.00
54788;DHT22;59598;48.112;16.280;2023-05-16T02:05:01;13.30;1.00
54788;DHT22;59598;48.112;16.280;2023-05-16T02:07:35;13.40;1.00
54788;DHT22;59598;48.112;16.280;2023-05-16T02:10:06;13.40;1.00
54788;DHT22;59598;48.112;16.280;2023-05-16T02:12:38;13.40;1.00
54788;DHT22;59598;48.112;16.280;2023-05-16T02:15:12;13.50;1.00
54788;DHT22;59598;48.112;16.280;2023-05-16T02:17:47;13.50;1.00
54788;DHT22;59598;48.112;16.280;2023-05-16T02:20:21;13.50;1.00
54788;DHT22;59598;48.112;16.280;2023-05-16T02:22:55;13.60;1.00
54788;DHT22;59598;48.112;16.280;2023-05-16T02:25:29;13.60;1.00
54788;DHT22;59598;48.112;16.280;2023-05-16T02:28:00;13.60;1.00
54788;DHT22;59598;48.112;16.280;2023-05-16T02:30:34;13.60;1.00
54788;DHT22;59598;48.112;16.280;2023-05-16T02:33:06;13.60;1.00
54788;DHT22;59598;48.112;16.280;2023-05-16T02:35:40;13.70;1.00
54788;DHT22;59598;48.112;16.280;2023-05-16T02:38:11;13.70;1.00
54788;DHT22;59598;48.112;16.280;2023-05-16T02:40:47;13.70;1.00
54788;DHT22;59598;48.112;16.280;2023-05-16T02:43:18;13.70;1.00
54788;DHT22;59598;48.112;16.280;2023-05-16T02:45:50;13.70;1.00
54788;DHT22;59598;48.112;16.280;2023-05-16T02:48:26;13.70;1.00
54788;DHT22;59598;48.112;16.280;2023-05-16T02:51:00;13.60;1.00
54788;DHT22;59598;48.112;16.280;2023-05-16T02:53:31;13.60;1.00
54788;DHT22;59598;48.112;16.280;2023-05-16T02:56:06;13.60;1.00
54788;DHT22;59598;48.112;16.280;2023-05-16T02:58:41;13.60;1.00
54788;DHT22;59598;48.112;16.280;2023-05-16T03:01:16;13.60;1.00
54788;DHT22;59598;48.112;16.280;2023-05-16T03:03:49;13.50;1.00
54788;DHT22;59598;48.112;16.280;2023-05-16T03:06:26;13.50;1.00
54788;DHT22;59598;48.112;16.280;2023-05-16T03:08:57;13.50;1.00
54788;DHT22;59598;48.112;16.280;2023-05-16T03:11:31;13.50;1.00
54788;DHT22;59598;48.112;16.280;2023-05-16T03:14:02;13.50;1.00
54788;DHT22;59598;48.112;16.280;2023-05-16T03:16:37;13.50;1.00
54788;DHT22;59598;48.112;16.280;2023-05-16T03:19:09;13.40;1.00
54788;DHT22;59598;48.112;16.280;2023-05-16T03:21:40;13.40;1.00
54788;DHT22;59598;48.112;16.280;2023-05-16T03:24:12;13.40;1.00
54788;DHT22;59598;48.112;16.280;2023-05-16T03:26:44;13.30;1.00
54788;DHT22;59598;48.112;16.280;2023-05-16T03:29:15;13.40;1.00
54788;DHT22;59598;48.112;16.280;2023-05-16T03:31:49;13.40;1.00
54788;DHT22;59598;48.112;16.280;2023-05-16T03:34:21;13.40;1.00
54788;DHT22;59598;48.112;16.280;2023-05-16T03:36:52;13.40;1.00
54788;DHT22;59598;48.112;16.280;2023-05-16T03:39:29;13.40;1.00
54788;DHT22;59598;48.112;16.280;2023-05-16T03:42:02;13.50;1.00
54788;DHT22;59598;48.112;16.280;2023-05-16T03:44:34;13.50;1.00
54788;DHT22;59598;48.112;16.280;2023-05-16T03:47:08;13.50;1.00
54788;DHT22;59598;48.112;16.280;2023-05-16T03:49:39;13.60;1.00
54788;DHT22;59598;48.112;16.280;2023-05-16T03:52:11;13.60;1.00
54788;DHT22;59598;48.112;16.280;2023-05-16T03:54:45;13.60;1.00
54788;DHT22;59598;48.112;16.280;2023-05-16T03:57:21;13.70;1.00
54788;DHT22;59598;48.112;16.280;2023-05-16T03:59:53;13.70;1.00
54788;DHT22;59598;48.112;16.280;2023-05-16T04:02:29;13.80;1.00
54788;DHT22;59598;48.112;16.280;2023-05-16T04:05:01;13.80;1.00
54788;DHT22;59598;48.112;16.280;2023-05-16T04:07:35;13.80;1.00
54788;DHT22;59598;48.112;16.280;2023-05-16T04:10:08;13.80;1.00
54788;DHT22;59598;48.112;16.280;2023-05-16T04:12:40;13.90;1.00
54788;DHT22;59598;48.112;16.280;2023-05-16T04:15:17;13.90;1.00
54788;DHT22;59598;48.112;16.280;2023-05-16T04:17:48;13.90;1.00
54788;DHT22;59598;48.112;16.280;2023-05-16T04:20:19;13.90;1.00
54788;DHT22;59598;48.112;16.280;2023-05-16T04:22:53;13.90;1.00
54788;DHT22;59598;48.112;16.280;2023-05-16T04:25:31;14.00;1.00
54788;DHT22;59598;48.112;16.280;2023-05-16T04:28:05;14.00;1.00
54788;DHT22;59598;48.112;16.280;2023-05-16T04:30:39;14.00;1.00
54788;DHT22;59598;48.112;16.280;2023-05-16T04:33:10;14.00;1.00
54788;DHT22;59598;48.112;16.280;2023-05-16T04:35:42;14.00;1.00
54788;DHT22;59598;48.112;16.280;2023-05-16T04:38:14;14.00;1.00
54788;DHT22;59598;48.112;16.280;2023-05-16T04:40:45;14.10;1.00
54788;DHT22;59598;48.112;16.280;2023-05-16T04:43:18;14.10;1.00
54788;DHT22;59598;48.112;16.280;2023-05-16T04:45:49;14.10;1.00
54788;DHT22;59598;48.112;16.280;2023-05-16T04:48:21;14.30;1.00
54788;DHT22;59598;48.112;16.280;2023-05-16T04:50:52;14.30;1.00
54788;DHT22;59598;48.112;16.280;2023-05-16T04:53:27;14.30;1.00
54788;DHT22;59598;48.112;16.280;2023-05-16T04:55:59;14.40;1.00
54788;DHT22;59598;48.112;16.280;2023-05-16T04:58:31;14.40;1.00
54788;DHT22;59598;48.112;16.280;2023-05-16T05:01:03;14.40;1.00
54788;DHT22;59598;48.112;16.280;2023-05-16T05:03:36;14.40;1.00
54788;DHT22;59598;48.112;16.280;2023-05-16T05:06:10;14.40;1.00
54788;DHT22;59598;48.112;16.280;2023-05-16T05:08:43;14.40;1.00
54788;DHT22;59598;48.112;16.280;2023-05-16T05:11:15;14.40;1.00
54788;DHT22;59598;48.112;16.280;2023-05-16T05:13:47;14.40;1.00
54788;DHT22;59598;48.112;16.280;2023-05-16T05:16:18;14.40;1.00
54788;DHT22;59598;48.112;16.280;2023-05-16T05:18:49;14.40;1.00
54788;DHT22;59598;48.112;16.280;2023-05-16T05:21:21;14.50;1.00
54788;DHT22;59598;48.112;16.280;2023-05-16T05:23:55;14.60;1.00
54788;DHT22;59598;48.112;16.280;2023-05-16T05:26:26;14.70;1.00
54788;DHT22;59598;48.112;16.280;2023-05-16T05:29:02;14.80;1.00
54788;DHT22;59598;48.112;16.280;2023-05-16T05:31:33;14.90;1.00
54788;DHT22;59598;48.112;16.280;2023-05-16T05:34:06;14.90;1.00
54788;DHT22;59598;48.112;16.280;2023-05-16T05:36:38;14.90;99.90
54788;DHT22;59598;48.112;16.280;2023-05-16T05:39:10;15.00;99.90
54788;DHT22;59598;48.112;16.280;2023-05-16T05:41:44;15.00;99.90
54788;DHT22;59598;48.112;16.280;2023-05-16T05:44:18;15.10;99.90
54788;DHT22;59598;48.112;16.280;2023-05-16T05:46:49;15.10;99.90
54788;DHT22;59598;48.112;16.280;2023-05-16T05:49:24;15.00;99.90
54788;DHT22;59598;48.112;16.280;2023-05-16T05:51:56;15.10;99.90
54788;DHT22;59598;48.112;16.280;2023-05-16T05:54:29;15.40;99.90
54788;DHT22;59598;48.112;16.280;2023-05-16T05:57:00;15.50;99.90
54788;DHT22;59598;48.112;16.280;2023-05-16T05:59:33;15.50;99.90
54788;DHT22;59598;48.112;16.280;2023-05-16T06:02:10;15.60;99.90
54788;DHT22;59598;48.112;16.280;2023-05-16T06:04:43;15.60;99.90
54788;DHT22;59598;48.112;16.280;2023-05-16T06:07:15;15.80;99.90
54788;DHT22;59598;48.112;16.280;2023-05-16T06:09:49;15.70;99.90
54788;DHT22;59598;48.112;16.280;2023-05-16T06:12:20;15.60;99.90
54788;DHT22;59598;48.112;16.280;2023-05-16T06:14:56;15.30;99.90
54788;DHT22;59598;48.112;16.280;2023-05-16T06:17:27;15.30;99.90
54788;DHT22;59598;48.112;16.280;2023-05-16T06:20:01;15.20;99.90
54788;DHT22;59598;48.112;16.280;2023-05-16T06:22:35;15.10;99.90
54788;DHT22;59598;48.112;16.280;2023-05-16T06:25:07;14.90;99.90
54788;DHT22;59598;48.112;16.280;2023-05-16T06:27:38;15.00;1.00
54788;DHT22;59598;48.112;16.280;2023-05-16T06:30:17;15.10;1.00
54788;DHT22;59598;48.112;16.280;2023-05-16T06:32:55;15.00;99.90
54788;DHT22;59598;48.112;16.280;2023-05-16T06:35:27;15.00;99.90
54788;DHT22;59598;48.112;16.280;2023-05-16T06:38:00;15.00;99.90
54788;DHT22;59598;48.112;16.280;2023-05-16T06:40:31;15.00;1.00
54788;DHT22;59598;48.112;16.280;2023-05-16T06:43:05;15.30;99.90
54788;DHT22;59598;48.112;16.280;2023-05-16T06:45:37;15.20;99.90
54788;DHT22;59598;48.112;16.280;2023-05-16T06:48:08;15.20;99.90
54788;DHT22;59598;48.112;16.280;2023-05-16T06:50:40;15.20;99.90
54788;DHT22;59598;48.112;16.280;2023-05-16T06:53:12;15.20;99.90
54788;DHT22;59598;48.112;16.280;2023-05-16T06:55:46;15.00;99.90
54788;DHT22;59598;48.112;16.280;2023-05-16T06:58:17;15.00;1.00
54788;DHT22;59598;48.112;16.280;2023-05-16T07:00:51;15.00;1.00
54788;DHT22;59598;48.112;16.280;2023-05-16T07:03:22;14.90;1.00
54788;DHT22;59598;48.112;16.280;2023-05-16T07:05:56;14.80;1.00
54788;DHT22;59598;48.112;16.280;2023-05-16T07:08:27;14.90;99.90
54788;DHT22;59598;48.112;16.280;2023-05-16T07:11:04;14.90;99.90
54788;DHT22;59598;48.112;16.280;2023-05-16T07:13:35;14.90;99.90
54788;DHT22;59598;48.112;16.280;2023-05-16T07:16:09;14.80;1.00
54788;DHT22;59598;48.112;16.280;2023-05-16T07:18:40;14.90;1.00
54788;DHT22;59598;48.112;16.280;2023-05-16T07:21:11;15.00;99.90
54788;DHT22;59598;48.112;16.280;2023-05-16T07:23:45;15.00;99.90
54788;DHT22;59598;48.112;16.280;2023-05-16T07:26:17;15.00;99.90
54788;DHT22;59598;48.112;16.280;2023-05-16T07:28:49;14.80;99.90
54788;DHT22;59598;48.112;16.280;2023-05-16T07:31:20;14.90;99.90
54788;DHT22;59598;48.112;16.280;2023-05-16T07:33:55;14.80;99.90
54788;DHT22;59598;48.112;16.280;2023-05-16T07:36:29;14.70;99.90
54788;DHT22;59598;48.112;16.280;2023-05-16T07:39:03;14.70;1.00
54788;DHT22;59598;48.112;16.280;2023-05-16T07:41:35;14.70;1.00
54788;DHT22;59598;48.112;16.280;2023-05-16T07:44:08;14.70;1.00
54788;DHT22;59598;48.112;16.280;2023-05-16T07:46:42;14.70;1.00
54788;DHT22;59598;48.112;16.280;2023-05-16T07:49:14;14.80;1.00
54788;DHT22;59598;48.112;16.280;2023-05-16T07:51:46;14.70;1.00
54788;DHT22;59598;48.112;16.280;2023-05-16T07:54:20;14.60;1.00
54788;DHT22;59598;48.112;16.280;2023-05-16T07:56:51;14.40;99.90
54788;DHT22;59598;48.112;16.280;2023-05-16T07:59:25;14.30;99.90
54788;DHT22;59598;48.112;16.280;2023-05-16T08:02:01;13.90;1.00
54788;DHT22;59598;48.112;16.280;2023-05-16T08:04:32;13.60;1.00
54788;DHT22;59598;48.112;16.280;2023-05-16T08:07:04;13.40;1.00
54788;DHT22;59598;48.112;16.280;2023-05-16T08:09:38;13.20;1.00
54788;DHT22;59598;48.112;16.280;2023-05-16T08:12:09;13.20;53.90
54788;DHT22;59598;48.112;16.280;2023-05-16T08:14:43;13.10;99.90
54788;DHT22;59598;48.112;16.280;2023-05-16T08:17:14;13.00;99.90
54788;DHT22;59598;48.112;16.280;2023-05-16T08:19:46;12.90;99.90
54788;DHT22;59598;48.112;16.280;2023-05-16T08:22:17;12.90;99.90
54788;DHT22;59598;48.112;16.280;2023-05-16T08:24:55;12.80;99.90
54788;DHT22;59598;48.112;16.280;2023-05-16T08:27:28;12.80;99.90
54788;DHT22;59598;48.112;16.280;2023-05-16T08:29:59;12.80;99.90
54788;DHT22;59598;48.112;16.280;2023-05-16T08:32:30;12.90;99.90
54788;DHT22;59598;48.112;16.280;2023-05-16T08:35:05;12.90;99.90
54788;DHT22;59598;48.112;16.280;2023-05-16T08:37:37;13.00;99.90
54788;DHT22;59598;48.112;16.280;2023-05-16T08:40:09;13.00;99.90
54788;DHT22;59598;48.112;16.280;2023-05-16T08:42:44;13.00;99.90
54788;DHT22;59598;48.112;16.280;2023-05-16T08:45:15;12.90;99.90
54788;DHT22;59598;48.112;16.280;2023-05-16T08:47:49;12.90;99.90
54788;DHT22;59598;48.112;16.280;2023-05-16T08:50:24;12.80;99.90
54788;DHT22;59598;48.112;16.280;2023-05-16T08:52:56;12.70;99.90
54788;DHT22;59598;48.112;16.280;2023-05-16T08:55:34;12.70;99.90
54788;DHT22;59598;48.112;16.280;2023-05-16T08:58:06;12.60;99.90
54788;DHT22;59598;48.112;16.280;2023-05-16T09:00:39;12.60;99.90
54788;DHT22;59598;48.112;16.280;2023-05-16T09:03:10;12.60;99.90
54788;DHT22;59598;48.112;16.280;2023-05-16T09:05:42;12.60;99.90
54788;DHT22;59598;48.112;16.280;2023-05-16T09:08:16;12.60;99.90
54788;DHT22;59598;48.112;16.280;2023-05-16T09:10:47;12.50;99.90
54788;DHT22;59598;48.112;16.280;2023-05-16T09:13:18;12.50;99.90
54788;DHT22;59598;48.112;16.280;2023-05-16T09:16:16;12.40;99.90
54788;DHT22;59598;48.112;16.280;2023-05-16T09:19:14;12.30;99.90
54788;DHT22;59598;48.112;16.280;2023-05-16T09:21:46;12.20;99.90
54788;DHT22;59598;48.112;16.280;2023-05-16T09:24:24;12.20;99.90
54788;DHT22;59598;48.112;16.280;2023-05-16T09:29:45;12.30;99.90
54788;DHT22;59598;48.112;16.280;2023-05-16T09:32:20;12.30;99.90
54788;DHT22;59598;48.112;16.280;2023-05-16T09:34:52;12.20;99.90
54788;DHT22;59598;48.112;16.280;2023-05-16T09:37:24;12.20;99.90
54788;DHT22;59598;48.112;16.280;2023-05-16T09:39:55;12.20;99.90
54788;DHT22;59598;48.112;16.280;2023-05-16T09:42:32;12.20;99.90
54788;DHT22;59598;48.112;16.280;2023-05-16T09:45:06;12.20;99.90
54788;DHT22;59598;48.112;16.280;2023-05-16T09:47:46;12.20;99.90
54788;DHT22;59598;48.112;16.280;2023-05-16T09:50:17;12.20;99.90
54788;DHT22;59598;48.112;16.280;2023-05-16T09:52:51;12.20;99.90
54788;DHT22;59598;48.112;16.280;2023-05-16T09:55:29;12.20;99.90
54788;DHT22;59598;48.112;16.280;2023-05-16T09:58:05;12.20;99.90
54788;DHT22;59598;48.112;16.280;2023-05-16T10:00:37;12.20;99.90
54788;DHT22;59598;48.112;16.280;2023-05-16T10:03:09;12.20;99.90
54788;DHT22;59598;48.112;16.280;2023-05-16T10:05:41;12.20;99.90
54788;DHT22;59598;48.112;16.280;2023-05-16T10:08:13;12.20;99.90
54788;DHT22;59598;48.112;16.280;2023-05-16T10:10:53;12.20;99.90
54788;DHT22;59598;48.112;16.280;2023-05-16T10:13:29;12.20;99.90
54788;DHT22;59598;48.112;16.280;2023-05-16T10:16:06;12.30;99.90
54788;DHT22;59598;48.112;16.280;2023-05-16T10:18:42;12.40;99.90
54788;DHT22;59598;48.112;16.280;2023-05-16T10:21:14;12.30;99.90
54788;DHT22;59598;48.112;16.280;2023-05-16T10:23:50;12.30;99.90
54788;DHT22;59598;48.112;16.280;2023-05-16T10:26:26;12.50;99.90
54788;DHT22;59598;48.112;16.280;2023-05-16T10:28:58;12.40;99.90
54788;DHT22;59598;48.112;16.280;2023-05-16T10:31:32;12.50;99.90
54788;DHT22;59598;48.112;16.280;2023-05-16T10:34:03;12.50;99.90
54788;DHT22;59598;48.112;16.280;2023-05-16T10:36:35;12.50;99.90
54788;DHT22;59598;48.112;16.280;2023-05-16T10:39:07;12.50;99.90
54788;DHT22;59598;48.112;16.280;2023-05-16T10:41:42;12.60;99.90
54788;DHT22;59598;48.112;16.280;2023-05-16T10:44:16;12.60;99.90
54788;DHT22;59598;48.112;16.280;2023-05-16T10:46:47;12.70;99.90
54788;DHT22;59598;48.112;16.280;2023-05-16T10:49:22;12.80;99.90
54788;DHT22;59598;48.112;16.280;2023-05-16T10:54:49;12.80;99.90
54788;DHT22;59598;48.112;16.280;2023-05-16T10:57:28;12.90;99.90
54788;DHT22;59598;48.112;16.280;2023-05-16T11:00:07;13.00;99.90
54788;DHT22;59598;48.112;16.280;2023-05-16T11:02:43;13.10;99.90
54788;DHT22;59598;48.112;16.280;2023-05-16T11:05:17;13.10;99.90
54788;DHT22;59598;48.112;16.280;2023-05-16T11:08:04;13.00;99.90
54788;DHT22;59598;48.112;16.280;2023-05-16T11:10:39;13.00;99.90
54788;DHT22;59598;48.112;16.280;2023-05-16T11:13:11;13.10;99.90
54788;DHT22;59598;48.112;16.280;2023-05-16T11:15:45;13.10;99.90
54788;DHT22;59598;48.112;16.280;2023-05-16T11:18:16;13.20;99.90
54788;DHT22;59598;48.112;16.280;2023-05-16T11:20:53;13.10;99.90
54788;DHT22;59598;48.112;16.280;2023-05-16T11:23:33;13.20;99.90
54788;DHT22;59598;48.112;16.280;2023-05-16T11:26:04;13.20;99.90
54788;DHT22;59598;48.112;16.280;2023-05-16T11:28:36;13.30;99.90
54788;DHT22;59598;48.112;16.280;2023-05-16T11:31:08;13.20;99.90
54788;DHT22;59598;48.112;16.280;2023-05-16T11:33:41;13.20;99.90
54788;DHT22;59598;48.112;16.280;2023-05-16T11:36:13;13.20;99.90
54788;DHT22;59598;48.112;16.280;2023-05-16T11:38:45;13.10;99.90
54788;DHT22;59598;48.112;16.280;2023-05-16T11:41:21;13.00;99.90
54788;DHT22;59598;48.112;16.280;2023-05-16T11:43:52;13.00;99.90
54788;DHT22;59598;48.112;16.280;2023-05-16T11:46:23;12.90;99.90
54788;DHT22;59598;48.112;16.280;2023-05-16T11:48:55;12.80;99.90
54788;DHT22;59598;48.112;16.280;2023-05-16T11:51:29;12.80;99.90
54788;DHT22;59598;48.112;16.280;2023-05-16T11:54:03;12.90;99.90
54788;DHT22;59598;48.112;16.280;2023-05-16T11:56:40;12.80;99.90
54788;DHT22;59598;48.112;16.280;2023-05-16T11:59:15;12.80;99.90
54788;DHT22;59598;48.112;16.280;2023-05-16T12:01:46;12.70;99.90
54788;DHT22;59598;48.112;16.280;2023-05-16T12:04:23;12.80;99.90
54788;DHT22;59598;48.112;16.280;2023-05-16T12:07:00;12.80;99.90
54788;DHT22;59598;48.112;16.280;2023-05-16T12:09:38;12.80;99.90
54788;DHT22;59598;48.112;16.280;2023-05-16T12:12:09;12.80;99.90
54788;DHT22;59598;48.112;16.280;2023-05-16T12:14:41;12.70;99.90
54788;DHT22;59598;48.112;16.280;2023-05-16T12:17:12;12.70;99.90
54788;DHT22;59598;48.112;16.280;2023-05-16T12:19:43;12.80;99.90
54788;DHT22;59598;48.112;16.280;2023-05-16T12:22:16;12.90;99.90
54788;DHT22;59598;48.112;16.280;2023-05-16T12:24:53;12.90;99.90
54788;DHT22;59598;48.112;16.280;2023-05-16T12:27:25;12.90;99.90
54788;DHT22;59598;48.112;16.280;2023-05-16T12:29:58;12.80;99.90
54788;DHT22;59598;48.112;16.280;2023-05-16T12:32:36;12.90;99.90
54788;DHT22;59598;48.112;16.280;2023-05-16T12:35:11;13.10;99.90
54788;DHT22;59598;48.112;16.280;2023-05-16T12:37:43;13.00;99.90
54788;DHT22;59598;48.112;16.280;2023-05-16T12:40:18;13.00;99.90
54788;DHT22;59598;48.112;16.280;2023-05-16T12:42:53;13.00;99.90
54788;DHT22;59598;48.112;16.280;2023-05-16T12:45:28;13.10;99.90
54788;DHT22;59598;48.112;16.280;2023-05-16T12:48:12;13.00;99.90
54788;DHT22;59598;48.112;16.280;2023-05-16T12:50:44;13.10;99.90
54788;DHT22;59598;48.112;16.280;2023-05-16T12:53:17;13.10;99.90
54788;DHT22;59598;48.112;16.280;2023-05-16T12:55:48;13.00;99.90
54788;DHT22;59598;48.112;16.280;2023-05-16T12:58:20;13.10;99.90
54788;DHT22;59598;48.112;16.280;2023-05-16T13:00:57;13.10;99.90
54788;DHT22;59598;48.112;16.280;2023-05-16T13:03:31;13.00;99.90
54788;DHT22;59598;48.112;16.280;2023-05-16T13:06:04;13.00;99.90
54788;DHT22;59598;48.112;16.280;2023-05-16T13:08:36;12.90;99.90
54788;DHT22;59598;48.112;16.280;2023-05-16T13:11:07;13.00;99.90
54788;DHT22;59598;48.112;16.280;2023-05-16T13:13:38;13.00;99.90
54788;DHT22;59598;48.112;16.280;2023-05-16T13:16:09;13.00;99.90
54788;DHT22;59598;48.112;16.280;2023-05-16T13:18:43;13.00;99.90
54788;DHT22;59598;48.112;16.280;2023-05-16T13:21:15;13.00;99.90
54788;DHT22;59598;48.112;16.280;2023-05-16T13:23:46;13.00;99.90
54788;DHT22;59598;48.112;16.280;2023-05-16T13:26:18;13.00;99.90
54788;DHT22;59598;48.112;16.280;2023-05-16T13:28:52;13.00;99.90
54788;DHT22;59598;48.112;16.280;2023-05-16T13:31:25;12.90;99.90
54788;DHT22;59598;48.112;16.280;2023-05-16T13:34:01;12.90;99.90
54788;DHT22;59598;48.112;16.280;2023-05-16T13:36:35;12.90;99.90
54788;DHT22;59598;48.112;16.280;2023-05-16T13:39:06;12.80;99.90
54788;DHT22;59598;48.112;16.280;2023-05-16T13:41:38;12.80;99.90
54788;DHT22;59598;48.112;16.280;2023-05-16T13:44:11;12.80;99.90
54788;DHT22;59598;48.112;16.280;2023-05-16T13:46:45;12.80;99.90
54788;DHT22;59598;48.112;16.280;2023-05-16T13:49:17;12.80;99.90
54788;DHT22;59598;48.112;16.280;2023-05-16T13:51:48;12.80;99.90
54788;DHT22;59598;48.112;16.280;2023-05-16T13:54:22;12.80;99.90
54788;DHT22;59598;48.112;16.280;2023-05-16T13:56:54;12.80;99.90
54788;DHT22;59598;48.112;16.280;2023-05-16T13:59:25;12.90;99.90
54788;DHT22;59598;48.112;16.280;2023-05-16T14:01:56;13.00;99.90
54788;DHT22;59598;48.112;16.280;2023-05-16T14:04:35;13.10;99.90
54788;DHT22;59598;48.112;16.280;2023-05-16T14:07:11;13.10;99.90
54788;DHT22;59598;48.112;16.280;2023-05-16T14:09:42;13.10;99.90
54788;DHT22;59598;48.112;16.280;2023-05-16T14:12:14;13.20;99.90
54788;DHT22;59598;48.112;16.280;2023-05-16T14:14:49;13.20;99.90
54788;DHT22;59598;48.112;16.280;2023-05-16T14:17:20;13.20;99.90
54788;DHT22;59598;48.112;16.280;2023-05-16T14:19:56;13.10;99.90
54788;DHT22;59598;48.112;16.280;2023-05-16T14:22:35;13.10;99.90
54788;DHT22;59598;48.112;16.280;2023-05-16T14:25:10;13.10;99.90
54788;DHT22;59598;48.112;16.280;2023-05-16T14:27:44;13.10;99.90
54788;DHT22;59598;48.112;16.280;2023-05-16T14:30:15;13.20;99.90
54788;DHT22;59598;48.112;16.280;2023-05-16T14:32:50;13.20;99.90
54788;DHT22;59598;48.112;16.280;2023-05-16T14:35:23;13.20;99.90
54788;DHT22;59598;48.112;16.280;2023-05-16T14:37:55;13.20;99.90
54788;DHT22;59598;48.112;16.280;2023-05-16T14:40:26;13.20;99.90
54788;DHT22;59598;48.112;16.280;2023-05-16T14:43:02;13.10;99.90
54788;DHT22;59598;48.112;16.280;2023-05-16T14:45:37;13.20;99.90
54788;DHT22;59598;48.112;16.280;2023-05-16T14:48:09;13.10;99.90
54788;DHT22;59598;48.112;16.280;2023-05-16T14:50:43;13.10;99.90
54788;DHT22;59598;48.112;16.280;2023-05-16T14:53:15;13.10;99.90
54788;DHT22;59598;48.112;16.280;2023-05-16T14:55:46;13.00;99.90
54788;DHT22;59598;48.112;16.280;2023-05-16T14:58:20;13.10;99.90
54788;DHT22;59598;48.112;16.280;2023-05-16T15:00:51;13.00;99.90
54788;DHT22;59598;48.112;16.280;2023-05-16T15:03:24;13.00;99.90
54788;DHT22;59598;48.112;16.280;2023-05-16T15:05:56;13.00;99.90
54788;DHT22;59598;48.112;16.280;2023-05-16T15:08:27;13.00;99.90
54788;DHT22;59598;48.112;16.280;2023-05-16T15:10:59;13.00;99.90
54788;DHT22;59598;48.112;16.280;2023-05-16T15:13:30;13.10;99.90
54788;DHT22;59598;48.112;16.280;2023-05-16T15:16:02;13.20;99.90
54788;DHT22;59598;48.112;16.280;2023-05-16T15:18:33;13.20;99.90
54788;DHT22;59598;48.112;16.280;2023-05-16T15:21:05;13.10;99.90
54788;DHT22;59598;48.112;16.280;2023-05-16T15:23:36;13.10;99.90
54788;DHT22;59598;48.112;16.280;2023-05-16T15:26:07;13.00;99.90
54788;DHT22;59598;48.112;16.280;2023-05-16T15:28:39;13.00;99.90
54788;DHT22;59598;48.112;16.280;2023-05-16T15:31:12;12.90;99.90
54788;DHT22;59598;48.112;16.280;2023-05-16T15:33:44;13.00;99.90
54788;DHT22;59598;48.112;16.280;2023-05-16T15:36:15;13.00;99.90
54788;DHT22;59598;48.112;16.280;2023-05-16T15:38:49;13.00;99.90
54788;DHT22;59598;48.112;16.280;2023-05-16T15:41:20;12.90;99.90
54788;DHT22;59598;48.112;16.280;2023-05-16T15:43:52;12.90;99.90
54788;DHT22;59598;48.112;16.280;2023-05-16T15:46:23;12.90;99.90
54788;DHT22;59598;48.112;16.280;2023-05-16T15:48:58;12.90;99.90
54788;DHT22;59598;48.112;16.280;2023-05-16T15:51:29;12.90;99.90
54788;DHT22;59598;48.112;16.280;2023-05-16T15:54:06;12.90;99.90
54788;DHT22;59598;48.112;16.280;2023-05-16T15:56:37;12.90;99.90
54788;DHT22;59598;48.112;16.280;2023-05-16T15:59:08;12.80;99.90
54788;DHT22;59598;48.112;16.280;2023-05-16T16:01:39;12.80;99.90
54788;DHT22;59598;48.112;16.280;2023-05-16T16:04:13;12.80;99.90
54788;DHT22;59598;48.112;16.280;2023-05-16T16:06:48;12.80;99.90
54788;DHT22;59598;48.112;16.280;2023-05-16T16:09:19;12.80;99.90
54788;DHT22;59598;48.112;16.280;2023-05-16T16:11:51;12.80;99.90
54788;DHT22;59598;48.112;16.280;2023-05-16T16:14:26;12.70;99.90